createdAt,value
2022-11-13T00:01:20.682Z,100023.06
2022-11-13T00:03:47.918Z,100021.31
2022-11-13T00:06:16.768Z,100018.81
2022-11-13T00:08:43.877Z,100008.56
2022-11-13T00:11:15.890Z,100005.19
2022-11-13T00:13:45.417Z,100002.59
2022-11-13T00:16:18.215Z,100003.47
2022-11-13T00:18:45.991Z,100006.13
2022-11-13T00:21:20.092Z,99992.44
2022-11-13T00:23:46.998Z,99993.31
2022-11-13T00:26:23.233Z,99982.19
2022-11-13T00:28:55.997Z,99987.31
2022-11-13T00:31:23.290Z,99990.78
2022-11-13T00:34:25.781Z,99986.56
2022-11-13T00:36:37.354Z,99978.84
2022-11-13T00:39:04.164Z,99977.97
2022-11-13T00:41:30.937Z,99972.88
2022-11-13T00:43:57.806Z,99970.28
2022-11-13T00:46:24.592Z,99965.13
2022-11-13T00:48:51.378Z,99972.91
2022-11-13T00:51:19.515Z,99965.22
2022-11-13T00:53:46.280Z,99959.38
2022-11-13T00:56:13.225Z,99962.69
2022-11-13T00:58:39.993Z,99972.16
2022-11-13T01:01:14.943Z,99967.84
2022-11-13T01:03:42.214Z,99969.66
2022-11-13T01:06:22.163Z,99960.44
2022-11-13T01:08:49.485Z,99964.63
2022-11-13T01:11:19.733Z,99959.50
2022-11-13T01:13:49.817Z,99959.53
2022-11-13T01:16:20.843Z,99963.81
2022-11-13T01:18:48.371Z,99954.38
2022-11-13T01:21:19.223Z,99950.09
2022-11-13T01:23:46.563Z,99942.44
2022-11-13T01:26:19.979Z,99947.56
2022-11-13T01:28:48.012Z,99921.16
2022-11-13T01:31:21.691Z,99930.38
2022-11-13T01:33:49.387Z,99926.22
2022-11-13T01:36:20.346Z,99917.69
2022-11-13T01:38:47.770Z,99921.88
2022-11-13T01:41:26.729Z,99914.13
2022-11-13T01:43:55.298Z,99915.91
2022-11-13T01:46:34.891Z,99916.75
2022-11-13T01:49:11.043Z,99912.56
2022-11-13T01:51:43.394Z,99917.66
2022-11-13T01:54:17.881Z,99909.94
2022-11-13T01:56:44.904Z,99909.09
2022-11-13T01:59:14.251Z,99898.72
2022-11-13T02:01:41.205Z,99886.84
2022-11-13T02:04:08.105Z,99891.06
2022-11-13T02:07:01.201Z,99886.03
2022-11-13T02:09:46.648Z,99881.81
2022-11-13T02:12:31.765Z,99870.66
2022-11-13T02:15:00.868Z,99880.94
2022-11-13T02:17:35.304Z,99869.00
2022-11-13T02:20:05.894Z,99878.31
2022-11-13T02:22:36.317Z,99872.28
2022-11-13T02:25:04.649Z,99873.19
2022-11-13T02:27:45.671Z,99859.25
2022-11-13T02:30:31.758Z,99864.63
2022-11-13T02:32:59.346Z,99828.94
2022-11-13T02:35:35.815Z,99858.56
2022-11-13T02:38:05.536Z,99864.53
2022-11-13T02:40:33.833Z,99863.72
2022-11-13T02:43:00.657Z,99859.47
2022-11-13T02:45:27.468Z,99855.19
2022-11-13T02:47:54.223Z,99843.13
2022-11-13T02:50:21.231Z,99846.53
2022-11-13T02:52:48.019Z,99847.41
2022-11-13T02:55:14.836Z,99846.59
2022-11-13T02:57:41.570Z,99844.00
2022-11-13T03:00:13.511Z,99839.75
2022-11-13T03:02:41.208Z,99830.34
2022-11-13T03:05:13.253Z,99831.97
2022-11-13T03:07:41.817Z,99830.25
2022-11-13T03:10:11.287Z,99827.84
2022-11-13T03:12:38.639Z,99830.34
2022-11-13T03:15:07.690Z,99831.22
2022-11-13T03:17:34.933Z,99830.00
2022-11-13T03:20:02.211Z,99833.78
2022-11-13T03:22:29.007Z,99823.53
2022-11-13T03:24:55.769Z,99814.91
2022-11-13T03:27:22.629Z,99827.00
2022-11-13T03:29:49.697Z,99813.31
2022-11-13T03:32:16.518Z,99800.53
2022-11-13T03:34:43.408Z,99820.19
2022-11-13T03:37:10.249Z,99819.34
2022-11-13T03:39:37.012Z,99824.50
2022-11-13T03:42:03.824Z,99817.59
2022-11-13T03:44:30.622Z,99817.59
2022-11-13T03:46:57.390Z,99820.25
2022-11-13T03:49:24.153Z,99824.53
2022-11-13T03:51:50.931Z,99794.66
2022-11-13T03:54:17.774Z,99813.22
2022-11-13T03:56:44.594Z,99817.59
2022-11-13T03:59:11.364Z,99819.59
2022-11-13T04:01:38.181Z,99816.22
2022-11-13T04:04:05.165Z,99779.69
2022-11-13T04:06:32.219Z,99806.78
2022-11-13T04:08:59.044Z,99813.69
2022-11-13T04:11:25.949Z,99790.63
2022-11-13T04:13:52.718Z,99807.59
2022-11-13T04:16:19.477Z,99804.94
2022-11-13T04:18:46.243Z,99806.81
2022-11-13T04:21:13.057Z,99783.88
2022-11-13T04:23:39.915Z,99798.34
2022-11-13T04:26:06.721Z,99794.84
2022-11-13T04:28:33.760Z,99793.13
2022-11-13T04:31:00.554Z,99787.16
2022-11-13T04:33:27.400Z,99786.41
2022-11-13T04:35:54.149Z,99786.19
2022-11-13T04:38:20.978Z,99783.72
2022-11-13T04:40:51.468Z,99773.56
2022-11-13T04:43:18.250Z,99781.25
2022-11-13T04:45:45.078Z,99777.91
2022-11-13T04:48:12.060Z,99782.19
2022-11-13T04:50:38.806Z,99777.03
2022-11-13T04:53:05.556Z,99771.09
2022-11-13T04:55:32.349Z,99771.13
2022-11-13T04:57:59.111Z,99769.25
2022-11-13T05:00:25.889Z,99770.97
2022-11-13T05:02:52.711Z,99766.84
2022-11-13T05:05:19.545Z,99769.34
2022-11-13T05:07:46.348Z,99761.69
2022-11-13T05:10:13.198Z,99764.41
2022-11-13T05:12:39.961Z,99759.25
2022-11-13T05:15:07.571Z,99759.31
2022-11-13T05:17:34.358Z,99748.19
2022-11-13T05:20:01.134Z,99755.91
2022-11-13T05:22:28.068Z,99725.34
2022-11-13T05:24:54.830Z,99745.84
2022-11-13T05:27:21.737Z,99730.47
2022-11-13T05:29:48.557Z,99732.06
2022-11-13T05:32:15.410Z,99735.44
2022-11-13T05:34:42.172Z,99738.13
2022-11-13T05:37:09.202Z,99735.69
2022-11-13T05:39:36.016Z,99732.28
2022-11-13T05:42:02.795Z,99737.38
2022-11-13T05:44:29.697Z,99718.59
2022-11-13T05:46:56.519Z,99728.84
2022-11-13T05:49:23.301Z,99729.69
2022-11-13T05:51:50.109Z,99730.53
2022-11-13T05:54:16.895Z,99740.88
2022-11-13T05:56:43.683Z,99745.97
2022-11-13T05:59:10.540Z,99745.22
2022-11-13T06:01:39.840Z,99745.97
2022-11-13T06:04:07.899Z,99746.81
2022-11-13T06:06:35.205Z,99740.84
2022-11-13T06:09:05.219Z,99739.97
2022-11-13T06:11:32.599Z,99727.94
2022-11-13T06:14:00.168Z,99751.16
2022-11-13T06:16:33.607Z,99743.47
2022-11-13T06:19:05.979Z,99739.09
2022-11-13T06:21:34.856Z,99740.03
2022-11-13T06:24:02.222Z,99734.88
2022-11-13T06:26:33.639Z,99731.44
2022-11-13T06:29:02.731Z,99735.63
2022-11-13T06:31:33.363Z,99737.38
2022-11-13T06:34:01.256Z,99728.06
2022-11-13T06:36:34.748Z,99728.84
2022-11-13T06:39:02.333Z,99729.75
2022-11-13T06:41:31.275Z,99725.50
2022-11-13T06:44:02.780Z,99724.72
2022-11-13T06:46:30.938Z,99725.56
2022-11-13T06:48:59.373Z,99720.38
2022-11-13T06:51:29.381Z,99726.41
2022-11-13T06:53:56.959Z,99711.06
2022-11-13T06:56:24.174Z,99681.25
2022-11-13T06:58:50.977Z,99713.56
2022-11-13T07:01:21.546Z,99703.28
2022-11-13T07:03:48.876Z,99710.97
2022-11-13T07:06:19.246Z,99701.50
2022-11-13T07:08:47.016Z,99699.84
2022-11-13T07:11:21.420Z,99694.78
2022-11-13T07:13:48.994Z,99698.97
2022-11-13T07:16:18.243Z,99696.28
2022-11-13T07:18:51.990Z,99681.91
2022-11-13T07:21:19.308Z,99691.28
2022-11-13T07:23:49.078Z,99687.81
2022-11-13T07:26:16.124Z,99677.53
2022-11-13T07:28:42.912Z,99674.16
2022-11-13T07:31:12.902Z,99664.59
2022-11-13T07:33:39.721Z,99670.59
2022-11-13T07:36:08.199Z,99672.34
2022-11-13T07:38:35.209Z,99668.00
2022-11-13T07:41:02.535Z,99667.09
2022-11-13T07:43:29.450Z,99669.66
2022-11-13T07:46:00.299Z,99669.72
2022-11-13T07:48:28.326Z,99668.88
2022-11-13T07:50:59.764Z,99648.44
2022-11-13T07:53:26.529Z,99674.88
2022-11-13T07:55:53.302Z,99665.47
2022-11-13T07:58:20.076Z,99647.78
2022-11-13T08:00:47.043Z,99661.34
2022-11-13T08:03:16.752Z,99645.09
2022-11-13T08:05:43.883Z,99643.31
2022-11-13T08:08:15.109Z,99630.34
2022-11-13T08:10:42.608Z,99644.09
2022-11-13T08:13:10.976Z,99630.38
2022-11-13T08:15:38.228Z,99624.63
2022-11-13T08:18:05.923Z,99630.56
2022-11-13T08:20:33.173Z,99632.19
2022-11-13T08:23:01.941Z,99627.00
2022-11-13T08:25:30.052Z,99615.81
2022-11-13T08:27:57.148Z,99597.31
2022-11-13T08:30:26.351Z,99623.78
2022-11-13T08:32:53.633Z,99621.16
2022-11-13T08:35:24.091Z,99622.94
2022-11-13T08:37:53.520Z,99619.38
2022-11-13T08:40:20.656Z,99616.69
2022-11-13T08:42:47.529Z,99614.16
2022-11-13T08:45:14.278Z,99610.66
2022-11-13T08:47:41.067Z,99608.06
2022-11-13T08:50:08.300Z,99609.78
2022-11-13T08:52:35.041Z,99608.13
2022-11-13T08:55:01.897Z,99601.13
2022-11-13T08:57:28.648Z,99602.03
2022-11-13T08:59:55.527Z,99589.16
2022-11-13T09:02:22.292Z,99594.19
2022-11-13T09:04:49.081Z,99589.19
2022-11-13T09:07:16.261Z,99590.03
2022-11-13T09:09:43.152Z,99586.50
2022-11-13T09:12:09.901Z,99594.88
2022-11-13T09:14:36.935Z,99597.44
2022-11-13T09:17:04.190Z,99603.28
2022-11-13T09:19:31.087Z,99590.41
2022-11-13T09:21:58.091Z,99571.06
2022-11-13T09:24:24.911Z,99590.41
2022-11-13T09:26:51.724Z,99580.97
2022-11-13T09:29:18.505Z,99586.09
2022-11-13T09:31:45.389Z,99574.13
2022-11-13T09:34:12.227Z,99578.22
2022-11-13T09:36:38.992Z,99576.59
2022-11-13T09:39:05.986Z,99581.66
2022-11-13T09:41:43.193Z,99580.97
2022-11-13T09:44:45.444Z,99585.31
2022-11-13T09:47:19.982Z,99591.13
2022-11-13T09:50:05.480Z,99589.22
2022-11-13T09:52:39.200Z,99567.13
2022-11-13T09:55:06.589Z,99568.81
2022-11-13T09:57:48.537Z,99577.97
2022-11-13T10:00:20.890Z,99574.28
2022-11-13T10:04:00.671Z,99574.34
2022-11-13T10:06:51.535Z,99584.53
2022-11-13T10:09:34.072Z,99583.81
2022-11-13T10:12:08.475Z,99578.72
2022-11-13T10:14:45.882Z,99576.03
2022-11-13T10:17:44.168Z,99579.31
2022-11-13T10:20:20.085Z,99581.34
2022-11-13T10:23:14.128Z,99571.06
2022-11-13T10:25:42.688Z,99566.69
2022-11-13T10:28:48.996Z,99553.72
2022-11-13T10:31:06.502Z,99551.97
2022-11-13T10:33:33.353Z,99548.34
2022-11-13T10:36:20.820Z,99542.28
2022-11-13T10:39:15.407Z,99540.34
2022-11-13T10:41:54.509Z,99548.78
2022-11-13T10:44:22.422Z,99537.56
2022-11-13T10:46:49.409Z,99530.75
2022-11-13T10:49:21.740Z,99523.63
2022-11-13T10:51:57.409Z,99516.63
2022-11-13T10:54:28.265Z,99508.91
2022-11-13T10:57:22.691Z,99500.22
2022-11-13T10:59:49.483Z,99488.16
2022-11-13T11:02:25.818Z,99489.78
2022-11-13T11:05:03.899Z,99479.50
2022-11-13T11:07:40.700Z,99466.56
2022-11-13T11:10:23.838Z,99453.81
2022-11-13T11:13:18.356Z,99464.75
2022-11-13T11:15:51.695Z,99449.91
2022-11-13T11:18:28.650Z,99454.84
2022-11-13T11:21:00.009Z,99427.53
2022-11-13T11:23:41.657Z,99430.84
2022-11-13T11:26:18.680Z,99430.59
2022-11-13T11:28:53.928Z,99420.88
2022-11-13T11:31:41.699Z,99419.06
2022-11-13T11:34:33.246Z,99416.34
2022-11-13T11:37:07.741Z,99406.63
2022-11-13T11:40:04.878Z,99405.66
2022-11-13T11:42:58.960Z,99398.66
2022-11-13T11:45:30.790Z,99398.41
2022-11-13T11:47:59.915Z,99394.97
2022-11-13T11:51:13.267Z,99392.16
2022-11-13T11:54:40.896Z,99380.81
2022-11-13T11:57:45.058Z,99370.38
2022-11-13T12:00:18.787Z,99366.81
2022-11-13T12:03:28.067Z,99361.50
2022-11-13T12:06:19.526Z,99357.09
2022-11-13T12:09:24.605Z,99334.66
2022-11-13T12:12:10.011Z,99336.00
2022-11-13T12:15:16.006Z,99319.53
2022-11-13T12:18:37.290Z,99308.91
2022-11-13T12:21:24.820Z,99285.81
2022-11-13T12:24:15.365Z,99302.47
2022-11-13T12:27:20.025Z,99302.09
2022-11-13T12:30:14.728Z,99284.41
2022-11-13T12:33:28.765Z,99279.88
2022-11-13T12:35:55.728Z,99278.91
2022-11-13T12:38:47.966Z,99287.25
2022-11-13T12:42:01.506Z,99282.84
2022-11-13T12:44:30.569Z,99280.03
2022-11-13T12:47:00.777Z,99241.06
2022-11-13T12:49:33.049Z,99275.44
2022-11-13T12:52:02.975Z,99253.44
2022-11-13T12:54:33.232Z,99268.31
2022-11-13T12:57:18.060Z,99258.72
2022-11-13T12:59:55.371Z,99246.53
2022-11-13T13:02:49.599Z,99252.44
2022-11-13T13:05:57.541Z,99248.88
2022-11-13T13:08:46.793Z,99231.91
2022-11-13T13:11:48.516Z,99243.56
2022-11-13T13:14:56.269Z,99239.88
2022-11-13T13:17:24.297Z,99230.28
2022-11-13T13:20:28.624Z,99232.78
2022-11-13T13:22:58.466Z,99192.91
2022-11-13T13:25:28.566Z,99229.03
2022-11-13T13:28:13.555Z,99229.75
2022-11-13T13:31:08.463Z,99229.59
2022-11-13T13:34:22.144Z,99219.06
2022-11-13T13:37:05.900Z,99210.16
2022-11-13T13:39:51.697Z,99203.19
2022-11-13T13:42:39.545Z,99200.41
2022-11-13T13:45:35.473Z,99190.81
2022-11-13T13:48:03.702Z,99191.53
2022-11-13T13:50:40.583Z,99189.66
2022-11-13T13:53:09.969Z,99172.63
2022-11-13T13:55:45.109Z,99185.06
2022-11-13T13:58:16.502Z,99178.94
2022-11-13T14:01:05.266Z,99177.09
2022-11-13T14:03:30.984Z,99176.97
2022-11-13T14:06:28.815Z,99174.19
2022-11-13T14:08:55.560Z,99178.34
2022-11-13T14:11:27.043Z,99162.63
2022-11-13T14:13:54.024Z,99153.91
2022-11-13T14:16:20.954Z,99160.69
2022-11-13T14:18:48.161Z,99147.66
2022-11-13T14:21:21.964Z,99140.69
2022-11-13T14:23:53.525Z,99131.31
2022-11-13T14:26:20.913Z,99143.09
2022-11-13T14:28:54.970Z,99146.44
2022-11-13T14:31:32.403Z,99146.34
2022-11-13T14:34:10.665Z,99134.16
2022-11-13T14:36:38.389Z,99135.84
2022-11-13T14:39:05.213Z,99141.97
2022-11-13T14:41:34.492Z,99153.75
2022-11-13T14:44:01.799Z,99153.56
2022-11-13T14:46:36.967Z,99142.28
2022-11-13T14:49:11.130Z,99135.56
2022-11-13T14:51:37.881Z,99128.06
2022-11-13T14:54:08.948Z,99156.66
2022-11-13T14:56:42.950Z,99141.91
2022-11-13T14:59:30.008Z,99142.72
2022-11-13T15:01:58.308Z,99138.38
2022-11-13T15:04:26.076Z,99130.00
2022-11-13T15:06:55.803Z,99129.75
2022-11-13T15:09:25.168Z,99142.59
2022-11-13T15:11:52.291Z,99133.34
2022-11-13T15:14:21.769Z,99152.69
2022-11-13T15:16:52.305Z,99138.53
2022-11-13T15:19:34.301Z,99146.72
2022-11-13T15:24:48.476Z,99148.34
2022-11-13T15:27:19.611Z,99123.78
2022-11-13T15:29:46.505Z,99120.97
2022-11-13T15:32:15.743Z,99128.50
2022-11-13T15:34:42.564Z,99144.84
2022-11-13T15:37:12.932Z,99143.16
2022-11-13T15:39:39.836Z,99138.13
2022-11-13T15:42:13.984Z,99134.63
2022-11-13T15:44:40.880Z,99135.66
2022-11-13T15:47:37.286Z,99139.88
2022-11-13T15:50:14.748Z,99131.41
2022-11-13T15:52:48.867Z,99137.44
2022-11-13T15:55:36.044Z,99130.47
2022-11-13T15:58:03.254Z,99133.34
2022-11-13T16:00:30.190Z,99126.28
2022-11-13T16:02:57.939Z,99133.75
2022-11-13T16:05:28.915Z,99141.59
2022-11-13T16:07:56.671Z,99143.53
2022-11-13T16:10:27.344Z,99132.41
2022-11-13T16:12:54.435Z,99120.13
2022-11-13T16:15:21.579Z,99138.69
2022-11-13T16:17:53.511Z,99137.94
2022-11-13T16:20:20.390Z,99145.69
2022-11-13T16:22:47.267Z,99148.28
2022-11-13T16:25:22.643Z,99130.75
2022-11-13T16:27:49.511Z,99115.75
2022-11-13T16:30:23.345Z,99145.22
2022-11-13T16:32:50.338Z,99137.72
2022-11-13T16:35:19.310Z,99144.13
2022-11-13T16:37:46.108Z,99144.25
2022-11-13T16:40:28.615Z,99148.53
2022-11-13T16:42:55.569Z,99153.03
2022-11-13T16:45:22.549Z,99156.50
2022-11-13T16:47:50.599Z,99157.41
2022-11-13T16:50:27.016Z,99151.81
2022-11-13T16:52:53.857Z,99151.00
2022-11-13T16:55:20.684Z,99146.28
2022-11-13T16:57:47.510Z,99161.50
2022-11-13T17:00:19.083Z,99153.28
2022-11-13T17:02:46.085Z,99156.97
2022-11-13T17:05:17.238Z,99161.47
2022-11-13T17:07:44.381Z,99151.13
2022-11-13T17:10:33.188Z,99151.28
2022-11-13T17:13:00.758Z,99155.06
2022-11-13T17:15:27.607Z,99156.19
2022-11-13T17:17:58.236Z,99162.28
2022-11-13T17:20:25.393Z,99151.38
2022-11-13T17:22:52.183Z,99159.25
2022-11-13T17:25:20.461Z,99169.72
2022-11-13T17:27:47.250Z,99167.31
2022-11-13T17:30:14.661Z,99150.59
2022-11-13T17:32:41.628Z,99163.81
2022-11-13T17:35:11.438Z,99159.06
2022-11-13T17:37:38.773Z,99166.69
2022-11-13T17:40:06.435Z,99159.13
2022-11-13T17:42:33.251Z,99155.88
2022-11-13T17:45:00.073Z,99148.97
2022-11-13T17:47:26.870Z,99154.28
2022-11-13T17:49:53.637Z,99163.94
2022-11-13T17:52:20.559Z,99153.28
2022-11-13T17:54:47.321Z,99155.41
2022-11-13T17:57:14.415Z,99150.63
2022-11-13T17:59:41.352Z,99150.03
2022-11-13T18:02:11.562Z,99154.31
2022-11-13T18:04:38.328Z,99136.69
2022-11-13T18:07:05.207Z,99152.84
2022-11-13T18:09:32.048Z,99151.28
2022-11-13T18:11:58.825Z,99158.28
2022-11-13T18:14:25.569Z,99156.72
2022-11-13T18:16:52.408Z,99158.47
2022-11-13T18:19:19.292Z,99149.91
2022-11-13T18:21:46.080Z,99148.06
2022-11-13T18:24:16.696Z,99149.81
2022-11-13T18:26:43.813Z,99152.34
2022-11-13T18:29:10.870Z,99132.88
2022-11-13T18:31:37.922Z,99138.06
2022-11-13T18:34:06.406Z,99137.19
2022-11-13T18:36:34.528Z,99138.88
2022-11-13T18:39:05.668Z,99132.09
2022-11-13T18:41:34.721Z,99132.19
2022-11-13T18:44:01.560Z,99131.41
2022-11-13T18:46:28.522Z,99114.56
2022-11-13T18:48:56.644Z,99126.47
2022-11-13T18:51:27.648Z,99130.03
2022-11-13T18:53:55.990Z,99118.72
2022-11-13T18:56:30.278Z,99123.22
2022-11-13T18:58:59.232Z,99120.84
2022-11-13T19:01:31.775Z,99122.59
2022-11-13T19:04:22.160Z,99114.31
2022-11-13T19:06:49.995Z,99049.53
2022-11-13T19:09:17.547Z,99110.91
2022-11-13T19:11:45.371Z,99113.44
2022-11-13T19:14:17.974Z,99121.44
2022-11-13T19:16:45.206Z,99109.81
2022-11-13T19:19:22.135Z,99118.97
2022-11-13T19:21:50.448Z,99111.63
2022-11-13T19:24:17.793Z,99101.25
2022-11-13T19:26:45.831Z,99111.50
2022-11-13T19:29:13.660Z,99106.44
2022-11-13T19:31:41.021Z,99104.84
2022-11-13T19:34:08.770Z,99093.63
2022-11-13T19:36:36.752Z,99102.22
2022-11-13T19:39:04.731Z,99101.59
2022-11-13T19:41:31.522Z,99095.69
2022-11-13T19:44:01.912Z,99103.44
2022-11-13T19:46:28.935Z,99107.03
2022-11-13T19:48:55.734Z,99101.88
2022-11-13T19:51:26.164Z,99079.25
2022-11-13T19:53:58.567Z,99103.97
2022-11-13T19:56:28.555Z,99099.59
2022-11-13T19:58:56.364Z,99087.75
2022-11-13T20:01:28.264Z,99088.81
2022-11-13T20:04:02.938Z,99091.47
2022-11-13T20:06:31.960Z,99089.81
2022-11-13T20:09:03.742Z,99098.50
2022-11-13T20:11:31.059Z,99096.06
2022-11-13T20:13:57.865Z,99092.63
2022-11-13T20:16:25.765Z,99091.75
2022-11-13T20:18:56.467Z,99103.13
2022-11-13T20:21:28.711Z,99114.28
2022-11-13T20:23:57.841Z,99104.28
2022-11-13T20:26:27.453Z,99120.59
2022-11-13T20:28:54.284Z,99112.09
2022-11-13T20:31:23.687Z,99108.69
2022-11-13T20:33:52.440Z,99099.41
2022-11-13T20:36:20.245Z,99099.28
2022-11-13T20:38:57.429Z,99101.09
2022-11-13T20:41:25.326Z,99107.22
2022-11-13T20:43:53.182Z,99092.25
2022-11-13T20:46:21.348Z,99116.94
2022-11-13T20:48:48.663Z,99112.81
2022-11-13T20:51:20.463Z,99119.50
2022-11-13T20:53:48.507Z,99126.47
2022-11-13T20:56:16.445Z,99122.34
2022-11-13T20:58:43.783Z,99099.84
2022-11-13T21:01:17.405Z,99103.44
2022-11-13T21:03:45.420Z,99100.09
2022-11-13T21:06:15.545Z,99112.28
2022-11-13T21:08:43.088Z,99107.38
2022-11-13T21:11:27.558Z,99110.81
2022-11-13T21:13:55.421Z,99118.59
2022-11-13T21:16:22.926Z,99115.25
2022-11-13T21:18:50.570Z,99110.16
2022-11-13T21:21:22.407Z,99099.22
2022-11-13T21:23:49.521Z,99101.75
2022-11-13T21:26:16.905Z,99099.22
2022-11-13T21:28:44.429Z,99094.34
2022-11-13T21:31:20.087Z,99094.38
2022-11-13T21:33:48.353Z,99088.38
2022-11-13T21:36:24.207Z,99089.34
2022-11-13T21:38:52.937Z,99069.97
2022-11-13T21:41:21.518Z,99078.25
2022-11-13T21:43:48.204Z,99081.72
2022-11-13T21:46:15.487Z,99072.59
2022-11-13T21:48:43.189Z,99072.34
2022-11-13T21:51:10.483Z,99073.31
2022-11-13T21:53:38.095Z,99065.03
2022-11-13T21:56:09.058Z,99076.78
2022-11-13T21:58:41.178Z,99067.41
2022-11-13T22:01:09.805Z,99064.81
2022-11-13T22:03:37.400Z,99082.94
2022-11-13T22:06:29.708Z,99087.13
2022-11-13T22:09:13.132Z,99087.16
2022-11-13T22:11:48.995Z,99071.69
2022-11-13T22:14:29.485Z,99071.50
2022-11-13T22:16:58.823Z,99074.22
2022-11-13T22:19:27.835Z,99077.69
2022-11-13T22:21:56.090Z,99068.22
2022-11-13T22:24:22.947Z,99066.41
2022-11-13T22:26:49.792Z,99040.91
2022-11-13T22:29:16.968Z,99062.06
2022-11-13T22:31:44.798Z,99057.00
2022-11-13T22:34:11.607Z,99053.53
2022-11-13T22:36:38.476Z,99051.75
2022-11-13T22:39:05.955Z,99050.31
2022-11-13T22:41:35.641Z,99049.59
2022-11-13T22:44:07.137Z,99053.59
2022-11-13T22:46:36.434Z,99058.78
2022-11-13T22:49:05.469Z,99029.19
2022-11-13T22:51:38.617Z,99049.28
2022-11-13T22:54:11.951Z,99046.69
2022-11-13T22:56:41.124Z,99043.25
2022-11-13T22:59:11.052Z,99042.50
2022-11-13T23:01:39.972Z,99028.81
2022-11-13T23:04:12.222Z,99012.69
2022-11-13T23:06:39.035Z,99013.25
2022-11-13T23:09:06.814Z,99008.31
2022-11-13T23:11:37.948Z,99004.53
2022-11-13T23:14:10.345Z,99005.19
2022-11-13T23:16:37.391Z,99003.53
2022-11-13T23:19:04.508Z,99004.28
2022-11-13T23:21:31.391Z,98997.53
2022-11-13T23:23:58.757Z,98995.13
2022-11-13T23:26:26.719Z,99000.25
2022-11-13T23:28:53.960Z,98976.59
2022-11-13T23:31:21.793Z,98989.97
2022-11-13T23:33:48.659Z,98980.78
2022-11-13T23:36:17.880Z,98986.78
2022-11-13T23:38:44.774Z,98963.91
2022-11-13T23:41:12.050Z,98975.91
2022-11-13T23:46:25.691Z,98975.16
2022-11-13T23:48:52.489Z,98973.34
2022-11-13T23:51:19.366Z,98976.00
2022-11-13T23:53:46.229Z,98980.44
2022-11-13T23:56:13.020Z,98977.09
2022-11-13T23:58:39.859Z,98977.94
